AZO955 UTAA-UCFM
Flight info
| Callsign | AZO955 |
|---|---|
| Flight time | 1h 50m |
| Altitude | 39000 |
| Route | BUR29D BUROT B114 POGON/K0809F390 N143 TAR Z580 OGTOL B357 GASTA JETTO1 |
| Aircraft | B738/M-SDE2E3FGHIRWXY/LB1 |
Departure
| Time | 2026-04-26 08:11 |
|---|---|
| Airport | Ashgabat International Airport (UTAA) |
Arrival
| Time | 2026-04-26 10:01 |
|---|---|
| Airport | Manas International Airport (UCFM) |
| Time | Latitude | Longitude | Altitude | Speed | Heading |
|---|---|---|---|---|---|
| 2026-04-26 07:38 | 37.98226 | 58.36438 | 677 ft | 0 kts | 210° |
| 2026-04-26 08:01 | 37.98237 | 58.36447 | 676 ft | 5 kts | 207° |
| 2026-04-26 08:01 | 37.98257 | 58.36459 | 677 ft | 4 kts | 203° |
| 2026-04-26 08:01 | 37.98281 | 58.36468 | 676 ft | 3 kts | 181° |
| 2026-04-26 08:01 | 37.98301 | 58.36461 | 674 ft | 3 kts | 140° |
| 2026-04-26 08:02 | 37.98313 | 58.36445 | 677 ft | 2 kts | 124° |
| 2026-04-26 08:02 | 37.98319 | 58.36433 | 673 ft | 2 kts | 121° |
| 2026-04-26 08:02 | 37.98325 | 58.36421 | 675 ft | 2 kts | 120° |
| 2026-04-26 08:02 | 37.98325 | 58.36420 | 674 ft | 0 kts | 120° |
| 2026-04-26 08:04 | 37.98323 | 58.36424 | 673 ft | 1 kts | 121° |
| 2026-04-26 08:04 | 37.98316 | 58.36439 | 677 ft | 5 kts | 121° |
| 2026-04-26 08:04 | 37.98287 | 58.36498 | 675 ft | 11 kts | 121° |
| 2026-04-26 08:05 | 37.98226 | 58.36628 | 677 ft | 15 kts | 115° |
| 2026-04-26 08:05 | 37.98176 | 58.36754 | 674 ft | 17 kts | 120° |
| 2026-04-26 08:05 | 37.98112 | 58.36890 | 675 ft | 19 kts | 120° |
| 2026-04-26 08:05 | 37.98072 | 58.36980 | 675 ft | 17 kts | 117° |
| 2026-04-26 08:06 | 37.98012 | 58.37098 | 675 ft | 14 kts | 153° |
| 2026-04-26 08:06 | 37.97917 | 58.37124 | 677 ft | 14 kts | 179° |
| 2026-04-26 08:06 | 37.97824 | 58.37139 | 677 ft | 13 kts | 163° |
| 2026-04-26 08:06 | 37.97741 | 58.37182 | 677 ft | 13 kts | 142° |
| 2026-04-26 08:07 | 37.97695 | 58.37277 | 677 ft | 12 kts | 120° |
| 2026-04-26 08:07 | 37.97652 | 58.37372 | 675 ft | 13 kts | 119° |
| 2026-04-26 08:07 | 37.97600 | 58.37476 | 677 ft | 15 kts | 135° |
| 2026-04-26 08:07 | 37.97511 | 58.37472 | 677 ft | 14 kts | 209° |
| 2026-04-26 08:08 | 37.97452 | 58.37428 | 677 ft | 0 kts | 210° |
| 2026-04-26 08:08 | 37.97447 | 58.37425 | 677 ft | 3 kts | 210° |
| 2026-04-26 08:08 | 37.97401 | 58.37390 | 677 ft | 12 kts | 211° |
| 2026-04-26 08:09 | 37.97342 | 58.37338 | 673 ft | 9 kts | 238° |
| 2026-04-26 08:09 | 37.97351 | 58.37273 | 677 ft | 0 kts | 298° |
| 2026-04-26 08:10 | 37.97390 | 58.37182 | 676 ft | 23 kts | 299° |
| 2026-04-26 08:10 | 37.97578 | 58.36760 | 673 ft | 101 kts | 300° |
| 2026-04-26 08:11 | 37.98070 | 58.35657 | 690 ft | 183 kts | 298° |
| 2026-04-26 08:11 | 37.98764 | 58.34089 | 1318 ft | 215 kts | 298° |
| 2026-04-26 08:11 | 37.99484 | 58.32448 | 2559 ft | 207 kts | 300° |
| 2026-04-26 08:11 | 38.00163 | 58.30898 | 3843 ft | 195 kts | 300° |
| 2026-04-26 08:12 | 38.00828 | 58.29383 | 4718 ft | 203 kts | 299° |
| 2026-04-26 08:12 | 38.01560 | 58.27717 | 5028 ft | 230 kts | 299° |
| 2026-04-26 08:12 | 38.02522 | 58.26001 | 5289 ft | 251 kts | 314° |
| 2026-04-26 08:12 | 38.03916 | 58.24632 | 5822 ft | 257 kts | 332° |
| 2026-04-26 08:13 | 38.05610 | 58.23895 | 6364 ft | 260 kts | 353° |
| 2026-04-26 08:13 | 38.07420 | 58.23947 | 6900 ft | 263 kts | 13° |
| 2026-04-26 08:13 | 38.09171 | 58.24806 | 7280 ft | 279 kts | 34° |
| 2026-04-26 08:13 | 38.10621 | 58.26459 | 7921 ft | 284 kts | 54° |
| 2026-04-26 08:14 | 38.11652 | 58.28612 | 8651 ft | 288 kts | 63° |
| 2026-04-26 08:14 | 38.12588 | 58.30889 | 9396 ft | 293 kts | 64° |
| 2026-04-26 08:14 | 38.13527 | 58.33219 | 10125 ft | 300 kts | 64° |
| 2026-04-26 08:14 | 38.14512 | 58.35651 | 10426 ft | 321 kts | 64° |
| 2026-04-26 08:15 | 38.15581 | 58.38268 | 10605 ft | 344 kts | 63° |
| 2026-04-26 08:15 | 38.16709 | 58.41001 | 11047 ft | 356 kts | 63° |
| 2026-04-26 08:15 | 38.17880 | 58.43814 | 11719 ft | 360 kts | 63° |
| 2026-04-26 08:15 | 38.19043 | 58.46596 | 12452 ft | 363 kts | 62° |
| 2026-04-26 08:16 | 38.20236 | 58.49444 | 13187 ft | 366 kts | 62° |
| 2026-04-26 08:16 | 38.21444 | 58.52322 | 13909 ft | 371 kts | 62° |
| 2026-04-26 08:16 | 38.22664 | 58.55231 | 14597 ft | 375 kts | 62° |
| 2026-04-26 08:16 | 38.23895 | 58.58168 | 15304 ft | 378 kts | 62° |
| 2026-04-26 08:17 | 38.25139 | 58.61140 | 16028 ft | 382 kts | 62° |
| 2026-04-26 08:17 | 38.26393 | 58.64135 | 16720 ft | 386 kts | 62° |
| 2026-04-26 08:17 | 38.27665 | 58.67177 | 17390 ft | 390 kts | 61° |
| 2026-04-26 08:17 | 38.28942 | 58.70237 | 18074 ft | 395 kts | 61° |
| 2026-04-26 08:18 | 38.30240 | 58.73349 | 18716 ft | 399 kts | 61° |
| 2026-04-26 08:18 | 38.31545 | 58.76484 | 19270 ft | 403 kts | 61° |
| 2026-04-26 08:18 | 38.32867 | 58.79659 | 19841 ft | 408 kts | 62° |
| 2026-04-26 08:18 | 38.34185 | 58.82830 | 20400 ft | 412 kts | 62° |
| 2026-04-26 08:19 | 38.35551 | 58.86117 | 20944 ft | 416 kts | 62° |
| 2026-04-26 08:19 | 38.36909 | 58.89391 | 21484 ft | 420 kts | 62° |
| 2026-04-26 08:19 | 38.38262 | 58.92655 | 21993 ft | 425 kts | 62° |
| 2026-04-26 08:19 | 38.39651 | 58.96010 | 22530 ft | 429 kts | 62° |
| 2026-04-26 08:20 | 38.41050 | 58.99392 | 23026 ft | 433 kts | 62° |
| 2026-04-26 08:20 | 38.42459 | 59.02803 | 23524 ft | 437 kts | 62° |
| 2026-04-26 08:20 | 38.43883 | 59.06255 | 23976 ft | 441 kts | 62° |
| 2026-04-26 08:20 | 38.45319 | 59.09737 | 24405 ft | 444 kts | 62° |
| 2026-04-26 08:21 | 38.46758 | 59.13229 | 24837 ft | 447 kts | 62° |
| 2026-04-26 08:21 | 38.48219 | 59.16749 | 25263 ft | 450 kts | 59° |
| 2026-04-26 08:21 | 38.49921 | 59.20128 | 25658 ft | 453 kts | 53° |
| 2026-04-26 08:21 | 38.51801 | 59.23347 | 26069 ft | 455 kts | 51° |
| 2026-04-26 08:22 | 38.53744 | 59.26561 | 26477 ft | 458 kts | 51° |
| 2026-04-26 08:22 | 38.55674 | 59.29833 | 26855 ft | 461 kts | 52° |
| 2026-04-26 08:22 | 38.57571 | 59.33150 | 27224 ft | 464 kts | 53° |
| 2026-04-26 08:22 | 38.59438 | 59.36541 | 27597 ft | 468 kts | 56° |
| 2026-04-26 08:23 | 38.60988 | 59.40154 | 27956 ft | 472 kts | 63° |
| 2026-04-26 08:23 | 38.62424 | 59.43945 | 28326 ft | 475 kts | 64° |
| 2026-04-26 08:23 | 38.63835 | 59.47776 | 28677 ft | 478 kts | 64° |
| 2026-04-26 08:23 | 38.65249 | 59.51634 | 29012 ft | 481 kts | 64° |
| 2026-04-26 08:24 | 38.66680 | 59.55518 | 29352 ft | 483 kts | 64° |
| 2026-04-26 08:24 | 38.68123 | 59.59406 | 29677 ft | 486 kts | 64° |
| 2026-04-26 08:24 | 38.69588 | 59.63331 | 29996 ft | 489 kts | 63° |
| 2026-04-26 08:24 | 38.71066 | 59.67276 | 30307 ft | 491 kts | 63° |
| 2026-04-26 08:25 | 38.72550 | 59.71233 | 30562 ft | 494 kts | 63° |
| 2026-04-26 08:25 | 38.74035 | 59.75193 | 30842 ft | 495 kts | 63° |
| 2026-04-26 08:25 | 38.75529 | 59.79182 | 31153 ft | 496 kts | 63° |
| 2026-04-26 08:25 | 38.77020 | 59.83172 | 31533 ft | 495 kts | 63° |
| 2026-04-26 08:26 | 38.78484 | 59.87096 | 31943 ft | 493 kts | 63° |
| 2026-04-26 08:26 | 38.79957 | 59.91050 | 32318 ft | 492 kts | 63° |
| 2026-04-26 08:26 | 38.81431 | 59.95013 | 32649 ft | 492 kts | 63° |
| 2026-04-26 08:26 | 38.82900 | 59.98965 | 32975 ft | 492 kts | 63° |
| 2026-04-26 08:27 | 38.84369 | 60.02926 | 33331 ft | 491 kts | 63° |
| 2026-04-26 08:27 | 38.85835 | 60.06882 | 33706 ft | 490 kts | 63° |
| 2026-04-26 08:27 | 38.87295 | 60.10829 | 34039 ft | 489 kts | 63° |
| 2026-04-26 08:27 | 38.88748 | 60.14760 | 34343 ft | 489 kts | 63° |
| 2026-04-26 08:28 | 38.90209 | 60.18719 | 34622 ft | 489 kts | 63° |
| 2026-04-26 08:28 | 38.91663 | 60.22664 | 34886 ft | 489 kts | 63° |
| 2026-04-26 08:28 | 38.93115 | 60.26609 | 35140 ft | 489 kts | 63° |
| 2026-04-26 08:28 | 38.94568 | 60.30559 | 35405 ft | 489 kts | 63° |
| 2026-04-26 08:29 | 38.96019 | 60.34511 | 35665 ft | 488 kts | 63° |
| 2026-04-26 08:29 | 38.97466 | 60.38460 | 35929 ft | 488 kts | 63° |
| 2026-04-26 08:29 | 38.98912 | 60.42409 | 36175 ft | 488 kts | 63° |
| 2026-04-26 08:29 | 39.00359 | 60.46367 | 36442 ft | 487 kts | 63° |
| 2026-04-26 08:30 | 39.01797 | 60.50303 | 36729 ft | 486 kts | 64° |
| 2026-04-26 08:30 | 39.03231 | 60.54236 | 36995 ft | 486 kts | 64° |
| 2026-04-26 08:30 | 39.04647 | 60.58124 | 37208 ft | 486 kts | 64° |
| 2026-04-26 08:30 | 39.06085 | 60.62077 | 37231 ft | 489 kts | 64° |
| 2026-04-26 08:31 | 39.08968 | 60.70018 | 37342 ft | 490 kts | 64° |
| 2026-04-26 08:31 | 39.10411 | 60.74002 | 37595 ft | 489 kts | 64° |
| 2026-04-26 08:31 | 39.11843 | 60.77963 | 37913 ft | 487 kts | 64° |
| 2026-04-26 08:32 | 39.13266 | 60.81904 | 38199 ft | 485 kts | 64° |
| 2026-04-26 08:32 | 39.14691 | 60.85851 | 38378 ft | 486 kts | 64° |
| 2026-04-26 08:32 | 39.16121 | 60.89817 | 38526 ft | 488 kts | 64° |
| 2026-04-26 08:32 | 39.17544 | 60.93769 | 38705 ft | 488 kts | 64° |
| 2026-04-26 08:33 | 39.19008 | 60.97723 | 38915 ft | 487 kts | 63° |
| 2026-04-26 08:33 | 39.20494 | 61.01643 | 39084 ft | 487 kts | 63° |
| 2026-04-26 08:33 | 39.21993 | 61.05562 | 39210 ft | 487 kts | 63° |
| 2026-04-26 08:33 | 39.23496 | 61.09487 | 39228 ft | 489 kts | 63° |
| 2026-04-26 08:34 | 39.26499 | 61.17380 | 39230 ft | 490 kts | 63° |
| 2026-04-26 08:34 | 39.29485 | 61.25293 | 39224 ft | 489 kts | 63° |
| 2026-04-26 08:35 | 39.32434 | 61.33144 | 39228 ft | 488 kts | 63° |
| 2026-04-26 08:35 | 39.35392 | 61.41041 | 39226 ft | 488 kts | 63° |
| 2026-04-26 08:36 | 39.38343 | 61.48936 | 39224 ft | 487 kts | 63° |
| 2026-04-26 08:36 | 39.41289 | 61.56839 | 39218 ft | 487 kts | 63° |
| 2026-04-26 08:37 | 39.44206 | 61.64683 | 39220 ft | 487 kts | 63° |
| 2026-04-26 08:37 | 39.47153 | 61.72631 | 39220 ft | 487 kts | 64° |
| 2026-04-26 08:38 | 39.50053 | 61.80472 | 39217 ft | 486 kts | 64° |
| 2026-04-26 08:38 | 39.52973 | 61.88389 | 39218 ft | 486 kts | 64° |
| 2026-04-26 08:39 | 39.55888 | 61.96313 | 39216 ft | 486 kts | 64° |
| 2026-04-26 08:39 | 39.58790 | 62.04224 | 39209 ft | 486 kts | 64° |
| 2026-04-26 08:40 | 39.61687 | 62.12143 | 39211 ft | 486 kts | 64° |
| 2026-04-26 08:40 | 39.64585 | 62.20084 | 39208 ft | 486 kts | 64° |
| 2026-04-26 08:41 | 39.67471 | 62.28014 | 39205 ft | 486 kts | 64° |
| 2026-04-26 08:41 | 39.70355 | 62.35960 | 39212 ft | 486 kts | 64° |
| 2026-04-26 08:42 | 39.73239 | 62.43928 | 39202 ft | 487 kts | 64° |
| 2026-04-26 08:42 | 39.76095 | 62.51842 | 39204 ft | 487 kts | 64° |
| 2026-04-26 08:43 | 39.78960 | 62.59802 | 39208 ft | 487 kts | 64° |
| 2026-04-26 08:43 | 39.81828 | 62.67790 | 39202 ft | 487 kts | 64° |
| 2026-04-26 08:44 | 39.84719 | 62.75766 | 39198 ft | 487 kts | 61° |
| 2026-04-26 08:44 | 39.88067 | 62.83433 | 39210 ft | 486 kts | 58° |
| 2026-04-26 08:45 | 39.91567 | 62.90979 | 39196 ft | 487 kts | 58° |
| 2026-04-26 08:45 | 39.95037 | 62.98550 | 39199 ft | 487 kts | 58° |
| 2026-04-26 08:46 | 39.98473 | 63.06180 | 39194 ft | 487 kts | 58° |
| 2026-04-26 08:46 | 40.01886 | 63.13821 | 39199 ft | 487 kts | 58° |
| 2026-04-26 08:47 | 40.05271 | 63.21422 | 39190 ft | 488 kts | 59° |
| 2026-04-26 08:47 | 40.08680 | 63.29092 | 39193 ft | 488 kts | 59° |
| 2026-04-26 08:48 | 40.12087 | 63.36772 | 39189 ft | 488 kts | 59° |
| 2026-04-26 08:48 | 40.15484 | 63.44447 | 39185 ft | 488 kts | 59° |
| 2026-04-26 08:49 | 40.18880 | 63.52138 | 39186 ft | 488 kts | 59° |
| 2026-04-26 08:49 | 40.22270 | 63.59836 | 39186 ft | 488 kts | 59° |
| 2026-04-26 08:50 | 40.25634 | 63.67496 | 39181 ft | 488 kts | 59° |
| 2026-04-26 08:50 | 40.29010 | 63.75201 | 39183 ft | 488 kts | 59° |
| 2026-04-26 08:51 | 40.34073 | 63.86792 | 39180 ft | 488 kts | 59° |
| 2026-04-26 08:52 | 40.37434 | 63.94511 | 39180 ft | 488 kts | 59° |
| 2026-04-26 08:52 | 40.40795 | 64.02251 | 39182 ft | 488 kts | 59° |
| 2026-04-26 08:53 | 40.44153 | 64.10001 | 39176 ft | 488 kts | 59° |
| 2026-04-26 08:53 | 40.47501 | 64.17749 | 39177 ft | 488 kts | 59° |
| 2026-04-26 08:54 | 40.50845 | 64.25507 | 39174 ft | 488 kts | 59° |
| 2026-04-26 08:54 | 40.54161 | 64.33222 | 39175 ft | 487 kts | 59° |
| 2026-04-26 08:55 | 40.56955 | 64.39736 | 39169 ft | 487 kts | 59° |
| 2026-04-26 08:55 | 40.60815 | 64.48758 | 39164 ft | 487 kts | 59° |
| 2026-04-26 08:56 | 40.63596 | 64.55275 | 39158 ft | 487 kts | 59° |
| 2026-04-26 08:56 | 40.66891 | 64.63015 | 39158 ft | 487 kts | 60° |
| 2026-04-26 08:57 | 40.70196 | 64.70800 | 39145 ft | 487 kts | 60° |
| 2026-04-26 08:57 | 40.73496 | 64.78592 | 39142 ft | 487 kts | 60° |
| 2026-04-26 08:58 | 40.76799 | 64.86411 | 39143 ft | 487 kts | 60° |
| 2026-04-26 08:58 | 40.80096 | 64.94236 | 39141 ft | 487 kts | 60° |
| 2026-04-26 08:59 | 40.83378 | 65.02047 | 39140 ft | 487 kts | 60° |
| 2026-04-26 08:59 | 40.86668 | 65.09895 | 39139 ft | 488 kts | 60° |
| 2026-04-26 09:00 | 40.89951 | 65.17754 | 39142 ft | 488 kts | 60° |
| 2026-04-26 09:00 | 40.93224 | 65.25616 | 39141 ft | 488 kts | 60° |
| 2026-04-26 09:01 | 40.96475 | 65.33446 | 39132 ft | 489 kts | 60° |
| 2026-04-26 09:01 | 40.99759 | 65.41374 | 39137 ft | 489 kts | 60° |
| 2026-04-26 09:02 | 41.03010 | 65.49234 | 39126 ft | 489 kts | 60° |
| 2026-04-26 09:02 | 41.06289 | 65.57142 | 39130 ft | 489 kts | 60° |
| 2026-04-26 09:03 | 41.09558 | 65.65056 | 39131 ft | 490 kts | 60° |
| 2026-04-26 09:03 | 41.12817 | 65.73000 | 39126 ft | 490 kts | 60° |
| 2026-04-26 09:04 | 41.16068 | 65.80951 | 39122 ft | 491 kts | 60° |
| 2026-04-26 09:04 | 41.19328 | 65.88940 | 39122 ft | 491 kts | 60° |
| 2026-04-26 09:05 | 41.22555 | 65.96869 | 39116 ft | 491 kts | 60° |
| 2026-04-26 09:05 | 41.25794 | 66.04847 | 39116 ft | 491 kts | 60° |
| 2026-04-26 09:06 | 41.29033 | 66.12848 | 39113 ft | 491 kts | 60° |
| 2026-04-26 09:06 | 41.32264 | 66.20851 | 39112 ft | 491 kts | 60° |
| 2026-04-26 09:07 | 41.35488 | 66.28859 | 39109 ft | 491 kts | 61° |
| 2026-04-26 09:07 | 41.38710 | 66.36882 | 39108 ft | 490 kts | 61° |
| 2026-04-26 09:08 | 41.41920 | 66.44899 | 39105 ft | 490 kts | 61° |
| 2026-04-26 09:08 | 41.45119 | 66.52910 | 39104 ft | 490 kts | 61° |
| 2026-04-26 09:09 | 41.48293 | 66.60877 | 39103 ft | 489 kts | 61° |
| 2026-04-26 09:09 | 41.51301 | 66.69031 | 39098 ft | 490 kts | 64° |
| 2026-04-26 09:10 | 41.54157 | 66.77276 | 39093 ft | 489 kts | 64° |
| 2026-04-26 09:10 | 41.57030 | 66.85514 | 39096 ft | 489 kts | 64° |
| 2026-04-26 09:11 | 41.59926 | 66.93741 | 39090 ft | 490 kts | 64° |
| 2026-04-26 09:11 | 41.62831 | 67.01992 | 39088 ft | 490 kts | 64° |
| 2026-04-26 09:12 | 41.65718 | 67.10229 | 39087 ft | 490 kts | 64° |
| 2026-04-26 09:12 | 41.68599 | 67.18470 | 39085 ft | 491 kts | 64° |
| 2026-04-26 09:13 | 41.71502 | 67.26810 | 39083 ft | 491 kts | 64° |
| 2026-04-26 09:13 | 41.74379 | 67.35117 | 39079 ft | 492 kts | 64° |
| 2026-04-26 09:14 | 41.77254 | 67.43441 | 39078 ft | 493 kts | 64° |
| 2026-04-26 09:14 | 41.80113 | 67.51742 | 39073 ft | 493 kts | 64° |
| 2026-04-26 09:15 | 41.82987 | 67.60110 | 39074 ft | 494 kts | 64° |
| 2026-04-26 09:15 | 41.85853 | 67.68481 | 39071 ft | 494 kts | 64° |
| 2026-04-26 09:16 | 41.88713 | 67.76860 | 39063 ft | 493 kts | 65° |
| 2026-04-26 09:16 | 41.91557 | 67.85217 | 39063 ft | 492 kts | 65° |
| 2026-04-26 09:17 | 41.94398 | 67.93590 | 39063 ft | 491 kts | 65° |
| 2026-04-26 09:17 | 41.97218 | 68.01927 | 39061 ft | 490 kts | 65° |
| 2026-04-26 09:18 | 42.00004 | 68.10189 | 39059 ft | 488 kts | 65° |
| 2026-04-26 09:18 | 42.02800 | 68.18505 | 39055 ft | 487 kts | 65° |
| 2026-04-26 09:19 | 42.05363 | 68.26923 | 39053 ft | 485 kts | 70° |
| 2026-04-26 09:19 | 42.07681 | 68.35444 | 39056 ft | 484 kts | 70° |
| 2026-04-26 09:20 | 42.09990 | 68.43970 | 39057 ft | 483 kts | 70° |
| 2026-04-26 09:20 | 42.12322 | 68.52462 | 39056 ft | 483 kts | 70° |
| 2026-04-26 09:21 | 42.14658 | 68.60928 | 39055 ft | 483 kts | 70° |
| 2026-04-26 09:21 | 42.16998 | 68.69434 | 39060 ft | 483 kts | 70° |
| 2026-04-26 09:22 | 42.19315 | 68.77890 | 39058 ft | 484 kts | 70° |
| 2026-04-26 09:22 | 42.21643 | 68.86420 | 39059 ft | 484 kts | 70° |
| 2026-04-26 09:23 | 42.23965 | 68.94957 | 39059 ft | 485 kts | 70° |
| 2026-04-26 09:23 | 42.26284 | 69.03514 | 39066 ft | 486 kts | 70° |
| 2026-04-26 09:24 | 42.28595 | 69.12070 | 39064 ft | 486 kts | 70° |
| 2026-04-26 09:24 | 42.30909 | 69.20668 | 39070 ft | 486 kts | 71° |
| 2026-04-26 09:25 | 42.33206 | 69.29233 | 39072 ft | 486 kts | 71° |
| 2026-04-26 09:25 | 42.35504 | 69.37829 | 39076 ft | 485 kts | 71° |
| 2026-04-26 09:26 | 42.37776 | 69.46413 | 39073 ft | 484 kts | 72° |
| 2026-04-26 09:26 | 42.39816 | 69.55000 | 39072 ft | 483 kts | 73° |
| 2026-04-26 09:27 | 42.41798 | 69.63665 | 39086 ft | 482 kts | 73° |
| 2026-04-26 09:27 | 42.43804 | 69.72330 | 39080 ft | 482 kts | 73° |
| 2026-04-26 09:28 | 42.45813 | 69.80961 | 39092 ft | 481 kts | 73° |
| 2026-04-26 09:28 | 42.47814 | 69.89579 | 39105 ft | 479 kts | 73° |
| 2026-04-26 09:29 | 42.49808 | 69.98206 | 39100 ft | 479 kts | 73° |
| 2026-04-26 09:29 | 42.51793 | 70.06820 | 39113 ft | 478 kts | 73° |
| 2026-04-26 09:30 | 42.54028 | 70.15297 | 39118 ft | 478 kts | 69° |
| 2026-04-26 09:30 | 42.56413 | 70.23665 | 39126 ft | 478 kts | 69° |
| 2026-04-26 09:31 | 42.58769 | 70.32109 | 39128 ft | 479 kts | 70° |
| 2026-04-26 09:31 | 42.61097 | 70.40591 | 39126 ft | 480 kts | 70° |
| 2026-04-26 09:32 | 42.63422 | 70.49093 | 39132 ft | 481 kts | 70° |
| 2026-04-26 09:32 | 42.65759 | 70.57666 | 39128 ft | 481 kts | 70° |
| 2026-04-26 09:33 | 42.68143 | 70.66178 | 39114 ft | 482 kts | 68° |
| 2026-04-26 09:33 | 42.70742 | 70.74533 | 39114 ft | 483 kts | 67° |
| 2026-04-26 09:34 | 42.73379 | 70.82957 | 39104 ft | 484 kts | 67° |
| 2026-04-26 09:34 | 42.75978 | 70.91420 | 39094 ft | 485 kts | 68° |
| 2026-04-26 09:35 | 42.78544 | 70.99863 | 39092 ft | 486 kts | 68° |
| 2026-04-26 09:35 | 42.81123 | 71.08377 | 39080 ft | 486 kts | 68° |
| 2026-04-26 09:36 | 42.83691 | 71.16873 | 39070 ft | 485 kts | 68° |
| 2026-04-26 09:36 | 42.86111 | 71.25463 | 39063 ft | 484 kts | 76° |
| 2026-04-26 09:37 | 42.86949 | 71.34484 | 39066 ft | 479 kts | 95° |
| 2026-04-26 09:37 | 42.86509 | 71.43458 | 38925 ft | 480 kts | 96° |
| 2026-04-26 09:37 | 42.86251 | 71.48076 | 38354 ft | 483 kts | 96° |
| 2026-04-26 09:38 | 42.86016 | 71.52567 | 37771 ft | 480 kts | 96° |
| 2026-04-26 09:38 | 42.85796 | 71.57101 | 37195 ft | 479 kts | 96° |
| 2026-04-26 09:38 | 42.85586 | 71.61632 | 36586 ft | 478 kts | 96° |
| 2026-04-26 09:38 | 42.85379 | 71.66160 | 35995 ft | 478 kts | 96° |
| 2026-04-26 09:39 | 42.85171 | 71.70668 | 35346 ft | 479 kts | 96° |
| 2026-04-26 09:39 | 42.84957 | 71.75221 | 34684 ft | 480 kts | 96° |
| 2026-04-26 09:39 | 42.84776 | 71.79770 | 34159 ft | 479 kts | 94° |
| 2026-04-26 09:39 | 42.84695 | 71.84294 | 33594 ft | 476 kts | 93° |
| 2026-04-26 09:40 | 42.84666 | 71.88781 | 33101 ft | 473 kts | 92° |
| 2026-04-26 09:40 | 42.84650 | 71.93237 | 32632 ft | 468 kts | 92° |
| 2026-04-26 09:40 | 42.84628 | 71.97649 | 32157 ft | 465 kts | 92° |
| 2026-04-26 09:40 | 42.84595 | 72.02051 | 31688 ft | 460 kts | 93° |
| 2026-04-26 09:41 | 42.84551 | 72.06394 | 31237 ft | 456 kts | 93° |
| 2026-04-26 09:41 | 42.84500 | 72.10700 | 30804 ft | 453 kts | 93° |
| 2026-04-26 09:41 | 42.84443 | 72.14966 | 30356 ft | 450 kts | 93° |
| 2026-04-26 09:41 | 42.84383 | 72.19221 | 29869 ft | 447 kts | 93° |
| 2026-04-26 09:42 | 42.84322 | 72.23446 | 29356 ft | 444 kts | 93° |
| 2026-04-26 09:42 | 42.84260 | 72.27630 | 28884 ft | 439 kts | 93° |
| 2026-04-26 09:42 | 42.84198 | 72.31770 | 28411 ft | 435 kts | 93° |
| 2026-04-26 09:42 | 42.84135 | 72.35868 | 27949 ft | 432 kts | 93° |
| 2026-04-26 09:43 | 42.84072 | 72.39896 | 27489 ft | 428 kts | 93° |
| 2026-04-26 09:43 | 42.84007 | 72.43967 | 27039 ft | 425 kts | 93° |
| 2026-04-26 09:43 | 42.83963 | 72.46635 | 26739 ft | 423 kts | 93° |
| 2026-04-26 09:43 | 42.83875 | 72.51913 | 26158 ft | 419 kts | 93° |
| 2026-04-26 09:44 | 42.83830 | 72.54584 | 25856 ft | 417 kts | 93° |
| 2026-04-26 09:44 | 42.83739 | 72.59788 | 25275 ft | 413 kts | 93° |
| 2026-04-26 09:44 | 42.83670 | 72.63703 | 24837 ft | 411 kts | 93° |
| 2026-04-26 09:44 | 42.83600 | 72.67573 | 24392 ft | 409 kts | 93° |
| 2026-04-26 09:45 | 42.83552 | 72.70193 | 24086 ft | 408 kts | 93° |
| 2026-04-26 09:45 | 42.83481 | 72.74005 | 23651 ft | 406 kts | 93° |
| 2026-04-26 09:45 | 42.83407 | 72.77884 | 23127 ft | 404 kts | 93° |
| 2026-04-26 09:45 | 42.83333 | 72.81701 | 22666 ft | 401 kts | 93° |
| 2026-04-26 09:46 | 42.83261 | 72.85413 | 22228 ft | 397 kts | 93° |
| 2026-04-26 09:46 | 42.83186 | 72.89164 | 21790 ft | 394 kts | 93° |
| 2026-04-26 09:46 | 42.83111 | 72.92879 | 21360 ft | 388 kts | 93° |
| 2026-04-26 09:46 | 42.83037 | 72.96501 | 20933 ft | 377 kts | 93° |
| 2026-04-26 09:47 | 42.82964 | 73.00013 | 20535 ft | 366 kts | 93° |
| 2026-04-26 09:47 | 42.82892 | 73.03448 | 20157 ft | 362 kts | 93° |
| 2026-04-26 09:47 | 42.82817 | 73.06872 | 19770 ft | 361 kts | 93° |
| 2026-04-26 09:47 | 42.82742 | 73.10284 | 19382 ft | 359 kts | 93° |
| 2026-04-26 09:48 | 42.82667 | 73.13692 | 19009 ft | 358 kts | 93° |
| 2026-04-26 09:48 | 42.82591 | 73.17041 | 18620 ft | 357 kts | 92° |
| 2026-04-26 09:48 | 42.82514 | 73.20461 | 18182 ft | 357 kts | 93° |
| 2026-04-26 09:48 | 42.82436 | 73.23828 | 17742 ft | 355 kts | 93° |
| 2026-04-26 09:49 | 42.82359 | 73.27145 | 17337 ft | 353 kts | 93° |
| 2026-04-26 09:49 | 42.82281 | 73.30469 | 16944 ft | 351 kts | 93° |
| 2026-04-26 09:49 | 42.82202 | 73.33790 | 16551 ft | 349 kts | 93° |
| 2026-04-26 09:49 | 42.82123 | 73.37082 | 16162 ft | 346 kts | 93° |
| 2026-04-26 09:50 | 42.82043 | 73.40350 | 15793 ft | 344 kts | 93° |
| 2026-04-26 09:50 | 42.81964 | 73.43600 | 15405 ft | 343 kts | 93° |
| 2026-04-26 09:50 | 42.81883 | 73.46829 | 15019 ft | 341 kts | 93° |
| 2026-04-26 09:50 | 42.81807 | 73.50064 | 14634 ft | 340 kts | 92° |
| 2026-04-26 09:51 | 42.81869 | 73.53280 | 14250 ft | 339 kts | 87° |
| 2026-04-26 09:51 | 42.82337 | 73.56410 | 13840 ft | 340 kts | 71° |
| 2026-04-26 09:51 | 42.83129 | 73.59448 | 13406 ft | 341 kts | 70° |
| 2026-04-26 09:51 | 42.83941 | 73.62487 | 12972 ft | 340 kts | 70° |
| 2026-04-26 09:52 | 42.84745 | 73.65523 | 12551 ft | 339 kts | 70° |
| 2026-04-26 09:52 | 42.86314 | 73.71565 | 11723 ft | 337 kts | 71° |
| 2026-04-26 09:52 | 42.87083 | 73.74574 | 11329 ft | 336 kts | 71° |
| 2026-04-26 09:53 | 42.87835 | 73.77527 | 10934 ft | 331 kts | 70° |
| 2026-04-26 09:53 | 42.88577 | 73.80456 | 10533 ft | 322 kts | 70° |
| 2026-04-26 09:53 | 42.89298 | 73.83305 | 10155 ft | 314 kts | 70° |
| 2026-04-26 09:53 | 42.89998 | 73.86075 | 9933 ft | 302 kts | 70° |
| 2026-04-26 09:54 | 42.90673 | 73.88759 | 9423 ft | 301 kts | 70° |
| 2026-04-26 09:54 | 42.91347 | 73.91432 | 9040 ft | 298 kts | 70° |
| 2026-04-26 09:54 | 42.92018 | 73.94094 | 8669 ft | 293 kts | 70° |
| 2026-04-26 09:54 | 42.92673 | 73.96702 | 8305 ft | 289 kts | 70° |
| 2026-04-26 09:55 | 42.93321 | 73.99280 | 7951 ft | 286 kts | 70° |
| 2026-04-26 09:55 | 42.94039 | 74.01810 | 7622 ft | 282 kts | 65° |
| 2026-04-26 09:55 | 42.94660 | 74.03699 | 7347 ft | 281 kts | 64° |
| 2026-04-26 09:55 | 42.95465 | 74.06070 | 6996 ft | 277 kts | 64° |
| 2026-04-26 09:56 | 42.96263 | 74.08414 | 6678 ft | 275 kts | 64° |
| 2026-04-26 09:56 | 42.97058 | 74.10767 | 6343 ft | 270 kts | 64° |
| 2026-04-26 09:56 | 42.97837 | 74.13086 | 6014 ft | 266 kts | 64° |
| 2026-04-26 09:56 | 42.98600 | 74.15372 | 5719 ft | 264 kts | 64° |
| 2026-04-26 09:57 | 42.99354 | 74.17641 | 5393 ft | 262 kts | 65° |
| 2026-04-26 09:57 | 43.00089 | 74.19855 | 5284 ft | 246 kts | 64° |
| 2026-04-26 09:57 | 43.00773 | 74.21918 | 5119 ft | 231 kts | 64° |
| 2026-04-26 09:57 | 43.01415 | 74.23864 | 5002 ft | 218 kts | 63° |
| 2026-04-26 09:58 | 43.02022 | 74.25695 | 4876 ft | 205 kts | 64° |
| 2026-04-26 09:58 | 43.02603 | 74.27466 | 4679 ft | 204 kts | 64° |
| 2026-04-26 09:58 | 43.03182 | 74.29213 | 4505 ft | 201 kts | 64° |
| 2026-04-26 09:58 | 43.03746 | 74.30950 | 4213 ft | 200 kts | 68° |
| 2026-04-26 09:59 | 43.04140 | 74.32767 | 3869 ft | 197 kts | 73° |
| 2026-04-26 09:59 | 43.04417 | 74.34543 | 3696 ft | 190 kts | 78° |
| 2026-04-26 09:59 | 43.04644 | 74.36352 | 3462 ft | 199 kts | 79° |
| 2026-04-26 09:59 | 43.04887 | 74.38233 | 3193 ft | 202 kts | 78° |
| 2026-04-26 10:00 | 43.05137 | 74.40145 | 2888 ft | 205 kts | 80° |
| 2026-04-26 10:00 | 43.05395 | 74.42026 | 2647 ft | 205 kts | 79° |
| 2026-04-26 10:00 | 43.05650 | 74.43973 | 2249 ft | 200 kts | 81° |
| 2026-04-26 10:00 | 43.05865 | 74.45742 | 2075 ft | 178 kts | 80° |
| 2026-04-26 10:01 | 43.06057 | 74.47233 | 2068 ft | 139 kts | 80° |
| 2026-04-26 10:01 | 43.06205 | 74.48351 | 2069 ft | 97 kts | 79° |
| 2026-04-26 10:01 | 43.06292 | 74.49052 | 2067 ft | 55 kts | 80° |
| 2026-04-26 10:01 | 43.06355 | 74.49462 | 2069 ft | 38 kts | 73° |
| 2026-04-26 10:02 | 43.06392 | 74.49690 | 2070 ft | 8 kts | 86° |
| 2026-04-26 10:02 | 43.06389 | 74.49697 | 2070 ft | 0 kts | 133° |
| 2026-04-26 10:02 | 43.06388 | 74.49697 | 2070 ft | 0 kts | 151° |
| 2026-04-26 10:02 | 43.06385 | 74.49695 | 2070 ft | 0 kts | 187° |
| 2026-04-26 10:03 | 43.06383 | 74.49689 | 2070 ft | 1 kts | 234° |
| 2026-04-26 10:03 | 43.06374 | 74.49654 | 2070 ft | 6 kts | 256° |
| 2026-04-26 10:03 | 43.06368 | 74.49569 | 2069 ft | 11 kts | 264° |
| 2026-04-26 10:03 | 43.06354 | 74.49440 | 2068 ft | 16 kts | 260° |
| 2026-04-26 10:04 | 43.06329 | 74.49270 | 2067 ft | 21 kts | 259° |
| 2026-04-26 10:04 | 43.06300 | 74.49065 | 2067 ft | 23 kts | 258° |
| 2026-04-26 10:04 | 43.06247 | 74.48845 | 2066 ft | 25 kts | 235° |
| 2026-04-26 10:04 | 43.06141 | 74.48668 | 2067 ft | 23 kts | 230° |
| 2026-04-26 10:05 | 43.06039 | 74.48502 | 2068 ft | 22 kts | 230° |
| 2026-04-26 10:05 | 43.05988 | 74.48307 | 2068 ft | 22 kts | 260° |
| 2026-04-26 10:05 | 43.05964 | 74.48105 | 2068 ft | 21 kts | 261° |
| 2026-04-26 10:05 | 43.05936 | 74.47910 | 2068 ft | 21 kts | 259° |
| 2026-04-26 10:06 | 43.05912 | 74.47730 | 2068 ft | 17 kts | 259° |
| 2026-04-26 10:06 | 43.05892 | 74.47574 | 2068 ft | 16 kts | 260° |
| 2026-04-26 10:06 | 43.05872 | 74.47424 | 2068 ft | 16 kts | 261° |
| 2026-04-26 10:06 | 43.05855 | 74.47279 | 2068 ft | 15 kts | 260° |
| 2026-04-26 10:07 | 43.05838 | 74.47140 | 2068 ft | 14 kts | 261° |
| 2026-04-26 10:07 | 43.05822 | 74.47016 | 2068 ft | 12 kts | 259° |
| 2026-04-26 10:07 | 43.05809 | 74.46920 | 2068 ft | 9 kts | 259° |
| 2026-04-26 10:07 | 43.05790 | 74.46843 | 2068 ft | 8 kts | 227° |
| 2026-04-26 10:08 | 43.05735 | 74.46833 | 2068 ft | 8 kts | 172° |
| 2026-04-26 10:08 | 43.05720 | 74.46835 | 2068 ft | 0 kts | 173° |